Time;durP1;ratioP1;P1;durP2;ratioP2;P2;SDS_P1;SDS_P2;PMS_P1;PMS_P2;Temp;Humidity;BMP_temperature;BMP_pressure;BME280_temperature;BME280_humidity;BME280_pressure;Samples;Min_cycle;Max_cycle;Signal;HPM_P1;HPM_P2
2023/10/22 00:02:12;;;;;;;5.63;0.82;;;;;;;;;;5031111;28;20509;-73
2023/10/22 00:04:38;;;;;;;8.93;1.30;;;;;;;;;;5031610;28;20037;-74
2023/10/22 00:07:04;;;;;;;4.32;0.90;;;;;;;;;;5029805;28;20363;-73
2023/10/22 00:09:29;;;;;;;1.20;0.80;;;;;;;;;;5030774;28;20505;-73
2023/10/22 00:11:54;;;;;;;1.30;0.60;;;;;;;;;;5030791;28;20029;-73
2023/10/22 00:14:19;;;;;;;7.67;1.10;;;;;;;;;;5031488;28;20253;-73
2023/10/22 00:16:44;;;;;;;1.37;0.70;;;;;;;;;;5025905;28;20267;-73
2023/10/22 00:19:10;;;;;;;5.83;0.80;;;;;;;;;;5030224;28;20306;-73
2023/10/22 00:21:35;;;;;;;9.50;1.57;;;;;;;;;;5031211;28;20276;-74
2023/10/22 00:24:00;;;;;;;4.18;0.68;;;;;;;;;;5031212;28;20625;-74
2023/10/22 00:26:25;;;;;;;1.73;0.80;;;;;;;;;;5031371;28;20029;-73
2023/10/22 00:28:50;;;;;;;4.60;0.90;;;;;;;;;;5027651;28;20291;-73
2023/10/22 00:31:16;;;;;;;8.48;0.50;;;;;;;;;;5025411;28;20009;-73
2023/10/22 00:33:41;;;;;;;5.30;0.83;;;;;;;;;;5031160;28;20022;-73
2023/10/22 00:36:06;;;;;;;3.05;0.90;;;;;;;;;;5022938;28;20268;-73
2023/10/22 00:38:31;;;;;;;5.43;0.80;;;;;;;;;;5021338;28;20038;-73
2023/10/22 00:40:56;;;;;;;3.20;0.95;;;;;;;;;;5030627;28;20018;-73
2023/10/22 00:43:22;;;;;;;1.75;0.68;;;;;;;;;;5020910;28;20509;-74
2023/10/22 00:45:47;;;;;;;4.93;1.10;;;;;;;;;;5021742;28;20386;-73
2023/10/22 00:48:13;;;;;;;4.78;0.52;;;;;;;;;;5015542;28;20265;-73
2023/10/22 00:50:41;;;;;;;1.95;0.40;;;;;;;;;;5024001;28;20109;-73
2023/10/22 00:53:07;;;;;;;5.25;0.73;;;;;;;;;;5027785;28;20088;-73
2023/10/22 00:55:34;;;;;;;7.30;0.80;;;;;;;;;;5025198;28;20089;-73
2023/10/22 00:58:00;;;;;;;1.77;0.70;;;;;;;;;;5016233;28;20018;-73
2023/10/22 01:00:26;;;;;;;5.10;0.50;;;;;;;;;;5019463;28;20050;-74
2023/10/22 01:02:52;;;;;;;2.60;0.45;;;;;;;;;;5023298;28;20049;-73
2023/10/22 01:05:17;;;;;;;6.35;0.73;;;;;;;;;;5031786;28;20013;-73
2023/10/22 01:07:42;;;;;;;6.67;1.23;;;;;;;;;;5017716;28;20018;-73
2023/10/22 01:10:09;;;;;;;3.60;0.50;;;;;;;;;;5017392;28;20539;-74
2023/10/22 01:12:38;;;;;;;3.20;0.50;;;;;;;;;;5029542;28;20017;-73
2023/10/22 01:15:03;;;;;;;3.88;0.85;;;;;;;;;;5027486;28;20347;-73
2023/10/22 01:17:28;;;;;;;5.15;1.08;;;;;;;;;;5014510;28;20017;-73
2023/10/22 01:19:54;;;;;;;1.83;0.45;;;;;;;;;;5027396;28;20052;-73
2023/10/22 01:22:19;;;;;;;17.10;1.27;;;;;;;;;;5029433;28;20021;-73
2023/10/22 01:24:44;;;;;;;3.80;1.03;;;;;;;;;;5027212;28;20252;-73
2023/10/22 01:27:09;;;;;;;1.77;0.30;;;;;;;;;;5028714;28;20271;-73
2023/10/22 01:29:34;;;;;;;2.63;1.00;;;;;;;;;;5029337;28;20390;-73
2023/10/22 01:31:59;;;;;;;2.27;0.40;;;;;;;;;;5027967;28;20029;-73
2023/10/22 01:34:25;;;;;;;3.33;0.60;;;;;;;;;;5019574;28;20276;-73
2023/10/22 01:36:50;;;;;;;2.03;0.20;;;;;;;;;;5019991;28;20017;-73
2023/10/22 01:39:15;;;;;;;3.10;0.60;;;;;;;;;;5029439;28;20779;-73
2023/10/22 01:41:41;;;;;;;2.22;0.60;;;;;;;;;;5028107;28;20067;-73
2023/10/22 01:44:06;;;;;;;3.10;0.32;;;;;;;;;;5020040;28;20049;-73
2023/10/22 01:46:32;;;;;;;2.17;0.57;;;;;;;;;;5044435;28;20112;-73
2023/10/22 01:48:57;;;;;;;5.63;1.05;;;;;;;;;;5027967;28;20083;-73
2023/10/22 01:51:22;;;;;;;7.57;1.40;;;;;;;;;;5024287;28;20032;-73
2023/10/22 01:53:47;;;;;;;1.30;0.43;;;;;;;;;;5019794;28;20029;-73
2023/10/22 01:56:12;;;;;;;1.10;0.47;;;;;;;;;;5014126;28;20256;-73
2023/10/22 01:58:38;;;;;;;6.07;0.80;;;;;;;;;;5013860;28;20109;-73
2023/10/22 02:01:03;;;;;;;4.50;0.50;;;;;;;;;;5021170;28;20284;-73
2023/10/22 02:03:28;;;;;;;3.10;0.60;;;;;;;;;;5019491;28;20022;-73
2023/10/22 02:05:54;;;;;;;2.93;0.87;;;;;;;;;;5014922;28;20032;-73
2023/10/22 02:08:19;;;;;;;3.63;0.35;;;;;;;;;;5020365;28;20276;-73
2023/10/22 02:10:47;;;;;;;3.93;0.70;;;;;;;;;;5016964;28;20096;-73
2023/10/22 02:13:12;;;;;;;1.45;0.85;;;;;;;;;;5017538;28;20263;-73
2023/10/22 02:15:37;;;;;;;5.53;0.40;;;;;;;;;;5023633;28;20018;-73
2023/10/22 02:18:02;;;;;;;4.73;0.67;;;;;;;;;;5014591;28;20032;-73
2023/10/22 02:20:28;;;;;;;4.18;0.88;;;;;;;;;;5013351;28;20264;-74
2023/10/22 02:22:53;;;;;;;1.17;0.50;;;;;;;;;;5014348;28;20048;-73
2023/10/22 02:25:18;;;;;;;0.63;0.47;;;;;;;;;;5024245;28;20769;-73
2023/10/22 02:27:43;;;;;;;0.57;0.40;;;;;;;;;;5019310;28;20269;-73
2023/10/22 02:30:09;;;;;;;1.90;0.60;;;;;;;;;;5019959;28;20312;-74
2023/10/22 02:32:34;;;;;;;5.85;0.88;;;;;;;;;;5019578;28;20771;-73
2023/10/22 02:34:59;;;;;;;3.00;0.60;;;;;;;;;;5026071;28;20018;-73
2023/10/22 02:37:24;;;;;;;0.90;0.33;;;;;;;;;;5018239;28;20273;-73
2023/10/22 02:39:49;;;;;;;6.45;1.00;;;;;;;;;;5019614;28;20276;-73
2023/10/22 02:42:14;;;;;;;1.63;0.20;;;;;;;;;;5014240;28;20022;-73
2023/10/22 02:44:40;;;;;;;2.73;0.40;;;;;;;;;;5021931;28;20792;-73
2023/10/22 02:47:05;;;;;;;2.08;0.82;;;;;;;;;;5017637;28;20386;-73
2023/10/22 02:49:30;;;;;;;12.57;0.75;;;;;;;;;;5020603;28;20057;-73
2023/10/22 02:51:56;;;;;;;1.85;0.40;;;;;;;;;;5027675;28;20131;-74
2023/10/22 02:54:21;;;;;;;1.00;0.32;;;;;;;;;;5023809;28;20029;-73
2023/10/22 02:56:47;;;;;;;9.65;0.60;;;;;;;;;;5018756;28;20068;-73
2023/10/22 02:59:12;;;;;;;4.18;0.77;;;;;;;;;;5020785;28;20052;-73
2023/10/22 03:01:37;;;;;;;5.17;0.60;;;;;;;;;;5016516;28;20032;-73
2023/10/22 03:04:02;;;;;;;2.00;0.90;;;;;;;;;;5023456;28;20318;-73
2023/10/22 03:06:27;;;;;;;3.92;0.82;;;;;;;;;;5020462;28;20359;-73
2023/10/22 03:08:52;;;;;;;2.53;0.33;;;;;;;;;;5021136;28;20025;-73
2023/10/22 03:11:18;;;;;;;1.40;0.73;;;;;;;;;;5016010;28;20268;-73
2023/10/22 03:13:44;;;;;;;1.67;0.85;;;;;;;;;;5021639;28;20260;-73
2023/10/22 03:16:15;;;;;;;2.45;1.75;;;;;;;;;;5021017;28;20036;-73
2023/10/22 03:18:41;;;;;;;1.98;0.40;;;;;;;;;;5015713;28;20018;-73
2023/10/22 03:21:14;;;;;;;0.55;0.30;;;;;;;;;;5016936;28;20020;-73
2023/10/22 03:23:42;;;;;;;5.25;0.55;;;;;;;;;;5016893;28;20481;-73
2023/10/22 03:26:09;;;;;;;2.42;0.45;;;;;;;;;;5020825;28;20442;-73
2023/10/22 03:28:36;;;;;;;4.82;0.55;;;;;;;;;;5018589;28;20017;-73
2023/10/22 03:31:03;;;;;;;2.38;0.75;;;;;;;;;;5017469;28;20021;-73
2023/10/22 03:33:28;;;;;;;0.30;0.30;;;;;;;;;;5018559;28;20017;-73
2023/10/22 03:35:53;;;;;;;1.58;0.50;;;;;;;;;;5018509;28;20017;-73
2023/10/22 03:38:19;;;;;;;3.93;0.53;;;;;;;;;;5014770;28;20022;-73
2023/10/22 03:40:44;;;;;;;0.57;0.40;;;;;;;;;;5021522;28;20679;-73
2023/10/22 03:43:10;;;;;;;2.53;0.60;;;;;;;;;;5017620;28;20268;-73
2023/10/22 03:45:35;;;;;;;6.05;1.08;;;;;;;;;;5022386;28;20279;-73
2023/10/22 03:48:00;;;;;;;0.97;0.50;;;;;;;;;;5015758;28;20490;-73
2023/10/22 03:50:25;;;;;;;6.97;0.70;;;;;;;;;;5015050;28;20467;-74
2023/10/22 03:52:51;;;;;;;1.13;0.37;;;;;;;;;;5021176;28;20668;-73
2023/10/22 03:55:16;;;;;;;3.10;0.57;;;;;;;;;;5018229;28;20280;-73
2023/10/22 03:57:41;;;;;;;1.63;0.53;;;;;;;;;;5014439;28;20340;-73
2023/10/22 04:00:07;;;;;;;1.77;0.53;;;;;;;;;;5015522;28;20648;-74
2023/10/22 04:02:32;;;;;;;1.23;0.52;;;;;;;;;;5014714;28;20257;-73
2023/10/22 04:04:57;;;;;;;1.85;0.35;;;;;;;;;;5021023;28;20439;-73
2023/10/22 04:07:22;;;;;;;2.20;0.43;;;;;;;;;;5017576;28;20494;-73
2023/10/22 04:09:48;;;;;;;0.82;0.35;;;;;;;;;;5014495;28;20291;-73
2023/10/22 04:12:13;;;;;;;3.63;0.57;;;;;;;;;;5014966;28;20024;-73
2023/10/22 04:14:38;;;;;;;0.70;0.23;;;;;;;;;;5019835;28;20278;-73
2023/10/22 04:17:03;;;;;;;4.97;0.50;;;;;;;;;;5030252;28;20305;-73
2023/10/22 04:19:28;;;;;;;5.13;0.47;;;;;;;;;;5025722;28;20261;-73
2023/10/22 04:21:53;;;;;;;0.70;0.35;;;;;;;;;;5015169;28;20602;-73
2023/10/22 04:24:19;;;;;;;1.43;0.53;;;;;;;;;;5016934;28;20159;-73
2023/10/22 04:26:44;;;;;;;0.17;0.10;;;;;;;;;;5037930;28;20283;-73
2023/10/22 04:29:09;;;;;;;1.20;0.38;;;;;;;;;;5030293;28;20280;-73
2023/10/22 04:31:34;;;;;;;0.20;0.20;;;;;;;;;;5030511;28;20452;-73
2023/10/22 04:34:00;;;;;;;1.88;0.32;;;;;;;;;;5016029;28;20037;-73
2023/10/22 04:36:25;;;;;;;3.40;0.40;;;;;;;;;;5025481;28;20112;-73
2023/10/22 04:38:50;;;;;;;0.93;0.40;;;;;;;;;;5030386;28;20288;-73
2023/10/22 04:41:15;;;;;;;0.80;0.20;;;;;;;;;;5015799;28;20264;-73
2023/10/22 04:43:41;;;;;;;0.10;0.10;;;;;;;;;;5017737;28;20037;-73
2023/10/22 04:46:06;;;;;;;0.30;0.20;;;;;;;;;;5028640;28;20021;-73
2023/10/22 04:48:32;;;;;;;1.15;0.25;;;;;;;;;;5025470;28;20425;-73
2023/10/22 04:51:00;;;;;;;2.00;0.38;;;;;;;;;;5014338;28;20025;-73
2023/10/22 04:53:25;;;;;;;0.10;0.10;;;;;;;;;;5019174;28;20092;-73
2023/10/22 04:55:54;;;;;;;0.30;0.20;;;;;;;;;;5022208;28;20456;-73
2023/10/22 04:58:19;;;;;;;7.43;0.77;;;;;;;;;;5026380;28;20029;-73
2023/10/22 05:00:48;;;;;;;4.57;0.25;;;;;;;;;;5012094;28;20022;-73
2023/10/22 05:03:14;;;;;;;0.98;0.20;;;;;;;;;;5029949;28;20385;-73
2023/10/22 05:05:39;;;;;;;2.28;0.20;;;;;;;;;;5023831;28;20022;-73
2023/10/22 05:08:05;;;;;;;0.57;0.20;;;;;;;;;;5013127;28;20946;-74
2023/10/22 05:10:30;;;;;;;0.38;0.22;;;;;;;;;;5012934;28;20311;-73
2023/10/22 05:12:56;;;;;;;1.58;0.20;;;;;;;;;;5027109;28;20481;-73
2023/10/22 05:15:21;;;;;;;1.17;0.30;;;;;;;;;;5029231;28;20057;-73
2023/10/22 05:17:47;;;;;;;0.32;0.10;;;;;;;;;;5028423;28;20041;-73
2023/10/22 05:20:12;;;;;;;0.55;0.13;;;;;;;;;;5024110;28;20033;-73
2023/10/22 05:22:37;;;;;;;0.80;0.20;;;;;;;;;;5024794;28;20025;-74
2023/10/22 05:25:03;;;;;;;2.13;0.20;;;;;;;;;;5030152;28;20429;-73
2023/10/22 05:27:28;;;;;;;0.47;0.28;;;;;;;;;;5018268;28;20264;-73
2023/10/22 05:29:53;;;;;;;0.20;0.10;;;;;;;;;;5013190;28;20439;-73
2023/10/22 05:32:18;;;;;;;0.20;0.20;;;;;;;;;;5021049;28;20264;-73
2023/10/22 05:34:43;;;;;;;0.10;0.10;;;;;;;;;;5030489;28;20497;-73
2023/10/22 05:37:09;;;;;;;2.05;0.28;;;;;;;;;;5020591;28;20244;-73
2023/10/22 05:39:36;;;;;;;0.32;0.25;;;;;;;;;;5012226;28;20038;-73
2023/10/22 05:42:02;;;;;;;0.10;0.10;;;;;;;;;;5019261;28;20036;-73
2023/10/22 05:44:27;;;;;;;1.25;0.35;;;;;;;;;;5029820;28;20025;-73
2023/10/22 05:46:52;;;;;;;0.90;0.30;;;;;;;;;;5024943;28;20025;-73
2023/10/22 05:49:20;;;;;;;0.55;0.20;;;;;;;;;;5018946;28;20022;-73
2023/10/22 05:51:45;;;;;;;0.47;0.20;;;;;;;;;;5012603;28;20018;-73
2023/10/22 05:54:10;;;;;;;0.20;0.20;;;;;;;;;;5028324;28;20058;-73
2023/10/22 05:56:35;;;;;;;0.47;0.30;;;;;;;;;;5026465;28;20737;-73
2023/10/22 05:59:04;;;;;;;0.20;0.20;;;;;;;;;;5027180;28;20025;-73
2023/10/22 06:01:29;;;;;;;1.50;0.30;;;;;;;;;;5030451;28;20264;-73
2023/10/22 06:03:55;;;;;;;0.57;0.20;;;;;;;;;;5044071;28;20041;-73
2023/10/22 06:06:20;;;;;;;3.00;0.60;;;;;;;;;;5034799;28;20020;-73
2023/10/22 06:08:46;;;;;;;0.95;0.40;;;;;;;;;;5033907;28;20259;-72
2023/10/22 06:11:11;;;;;;;3.67;0.40;;;;;;;;;;5041767;28;20048;-72
2023/10/22 06:13:36;;;;;;;0.97;0.20;;;;;;;;;;5037663;28;20067;-74
2023/10/22 06:16:02;;;;;;;1.27;0.57;;;;;;;;;;5037311;28;20255;-72
2023/10/22 06:18:28;;;;;;;0.40;0.30;;;;;;;;;;5039228;28;20259;-72
2023/10/22 06:20:53;;;;;;;0.80;0.20;;;;;;;;;;5038109;28;20038;-72
2023/10/22 06:23:19;;;;;;;1.93;0.67;;;;;;;;;;5032541;28;20021;-73
2023/10/22 06:25:44;;;;;;;2.97;0.75;;;;;;;;;;5037089;28;20259;-72
2023/10/22 06:28:09;;;;;;;4.60;1.30;;;;;;;;;;5038302;28;20021;-72
2023/10/22 06:30:34;;;;;;;10.02;2.25;;;;;;;;;;5041612;28;20017;-72
2023/10/22 06:33:00;;;;;;;5.10;2.10;;;;;;;;;;5036124;28;20041;-73
2023/10/22 06:35:28;;;;;;;2.22;1.15;;;;;;;;;;5038946;28;20253;-73
2023/10/22 06:37:54;;;;;;;5.82;2.03;;;;;;;;;;5044592;28;20035;-73
2023/10/22 06:40:19;;;;;;;7.63;2.23;;;;;;;;;;5036341;28;20030;-72
2023/10/22 06:42:45;;;;;;;5.28;1.83;;;;;;;;;;5040714;28;20267;-72
2023/10/22 06:45:10;;;;;;;10.25;1.48;;;;;;;;;;5039516;28;20048;-73
2023/10/22 06:47:36;;;;;;;5.40;2.15;;;;;;;;;;5027142;28;20042;-73
2023/10/22 06:50:02;;;;;;;7.93;1.90;;;;;;;;;;5025915;28;20053;-73
2023/10/22 06:52:27;;;;;;;4.88;1.73;;;;;;;;;;5030482;28;20017;-72
2023/10/22 06:54:53;;;;;;;6.63;1.50;;;;;;;;;;5016158;28;20025;-73
2023/10/22 06:57:18;;;;;;;5.28;1.40;;;;;;;;;;5013169;28;20736;-73
2023/10/22 06:59:46;;;;;;;9.70;1.27;;;;;;;;;;5028231;28;20047;-72
2023/10/22 07:02:11;;;;;;;7.05;2.30;;;;;;;;;;5028099;28;20280;-73
2023/10/22 07:04:37;;;;;;;7.03;2.17;;;;;;;;;;5016446;28;20025;-72
2023/10/22 07:07:02;;;;;;;8.53;3.87;;;;;;;;;;5031724;28;20267;-73
2023/10/22 07:09:27;;;;;;;16.13;6.88;;;;;;;;;;5039022;28;20753;-73
2023/10/22 07:11:52;;;;;;;13.00;5.85;;;;;;;;;;5037157;28;20025;-73
2023/10/22 07:14:17;;;;;;;6.77;2.27;;;;;;;;;;5022967;28;20021;-73
2023/10/22 07:16:43;;;;;;;6.05;1.73;;;;;;;;;;5028460;28;20706;-73
2023/10/22 07:19:08;;;;;;;6.17;3.20;;;;;;;;;;5036537;28;20482;-73
2023/10/22 07:21:33;;;;;;;8.80;1.83;;;;;;;;;;5029592;28;20264;-72
2023/10/22 07:23:58;;;;;;;4.17;1.80;;;;;;;;;;5024392;28;20271;-73
2023/10/22 07:26:23;;;;;;;4.83;2.03;;;;;;;;;;5036268;28;20276;-72
2023/10/22 07:28:49;;;;;;;3.60;1.40;;;;;;;;;;5039460;28;20247;-73
2023/10/22 07:31:17;;;;;;;2.78;1.02;;;;;;;;;;5033423;28;20018;-72
2023/10/22 07:33:42;;;;;;;3.25;1.52;;;;;;;;;;5034010;28;20032;-74
2023/10/22 07:36:07;;;;;;;4.03;1.10;;;;;;;;;;5029386;28;20146;-72
2023/10/22 07:38:33;;;;;;;0.77;0.52;;;;;;;;;;5024410;28;20105;-73
2023/10/22 07:40:58;;;;;;;0.60;0.60;;;;;;;;;;5011834;28;20022;-72
2023/10/22 07:43:25;;;;;;;2.38;0.63;;;;;;;;;;5012419;28;20734;-72
2023/10/22 07:45:50;;;;;;;0.52;0.50;;;;;;;;;;5017067;28;20803;-74
2023/10/22 07:48:15;;;;;;;2.63;0.53;;;;;;;;;;5027321;28;20093;-73
2023/10/22 07:50:40;;;;;;;1.27;0.80;;;;;;;;;;5025449;28;20281;-72
2023/10/22 07:53:05;;;;;;;3.20;0.57;;;;;;;;;;5019292;28;20017;-73
2023/10/22 07:55:31;;;;;;;1.80;1.00;;;;;;;;;;5018160;28;20657;-74
2023/10/22 07:57:56;;;;;;;2.20;0.67;;;;;;;;;;5015856;28;20079;-72
2023/10/22 08:00:21;;;;;;;5.00;0.93;;;;;;;;;;5029605;28;20264;-72
2023/10/22 08:02:46;;;;;;;2.97;1.00;;;;;;;;;;5014710;28;20049;-72
2023/10/22 08:05:11;;;;;;;5.43;2.60;;;;;;;;;;5018412;28;20386;-72
2023/10/22 08:07:36;;;;;;;3.37;2.47;;;;;;;;;;5013495;28;20271;-72
2023/10/22 08:10:02;;;;;;;2.77;1.37;;;;;;;;;;5026621;28;20422;-71
2023/10/22 08:12:28;;;;;;;4.95;2.10;;;;;;;;;;5017229;28;20257;-72
2023/10/22 08:14:53;;;;;;;5.03;1.52;;;;;;;;;;5012492;28;20022;-74
2023/10/22 08:17:18;;;;;;;8.10;4.05;;;;;;;;;;5010466;28;20014;-72
2023/10/22 08:19:43;;;;;;;4.47;2.80;;;;;;;;;;5029063;28;20018;-73
2023/10/22 08:22:08;;;;;;;3.57;1.60;;;;;;;;;;5029003;28;20260;-71
2023/10/22 08:24:34;;;;;;;3.97;1.70;;;;;;;;;;5019741;28;20268;-72
2023/10/22 08:27:00;;;;;;;20.70;6.15;;;;;;;;;;5012405;28;20426;-72
2023/10/22 08:29:25;;;;;;;7.13;2.13;;;;;;;;;;5026452;28;20691;-72
2023/10/22 08:31:50;;;;;;;19.25;6.00;;;;;;;;;;5021686;28;20029;-71
2023/10/22 08:34:15;;;;;;;2.97;1.47;;;;;;;;;;5013739;28;20025;-72
2023/10/22 08:36:40;;;;;;;5.57;0.90;;;;;;;;;;5029606;28;20350;-71
2023/10/22 08:39:07;;;;;;;2.73;0.83;;;;;;;;;;5030254;28;20278;-74
2023/10/22 08:41:36;;;;;;;2.83;0.88;;;;;;;;;;5029907;28;20267;-71
2023/10/22 08:44:02;;;;;;;4.10;2.35;;;;;;;;;;5038870;28;20421;-71
2023/10/22 08:46:27;;;;;;;5.38;0.75;;;;;;;;;;5022991;28;20113;-71
2023/10/22 08:48:53;;;;;;;3.45;1.00;;;;;;;;;;5033492;28;20029;-73
2023/10/22 08:51:20;;;;;;;4.18;0.90;;;;;;;;;;5033630;28;20021;-73
2023/10/22 08:53:45;;;;;;;2.70;1.30;;;;;;;;;;5032425;28;20025;-72
2023/10/22 08:56:10;;;;;;;1.67;1.13;;;;;;;;;;5033415;28;20082;-72
2023/10/22 08:58:35;;;;;;;7.43;3.40;;;;;;;;;;5030811;28;20253;-71
2023/10/22 09:01:01;;;;;;;1.87;1.23;;;;;;;;;;5033805;28;20024;-71
2023/10/22 09:03:28;;;;;;;3.13;1.25;;;;;;;;;;5031684;28;20296;-72
2023/10/22 09:05:53;;;;;;;3.13;1.33;;;;;;;;;;5029667;28;20500;-74
2023/10/22 09:08:19;;;;;;;2.92;1.00;;;;;;;;;;5028691;28;20067;-72
2023/10/22 09:10:44;;;;;;;2.28;1.20;;;;;;;;;;5035033;28;20563;-72
2023/10/22 09:13:11;;;;;;;14.73;3.90;;;;;;;;;;5030757;28;20385;-71
2023/10/22 09:15:37;;;;;;;14.77;4.82;;;;;;;;;;5028587;28;20489;-74
2023/10/22 09:18:02;;;;;;;1.73;1.30;;;;;;;;;;5026792;28;20024;-74
2023/10/22 09:20:29;;;;;;;1.50;0.98;;;;;;;;;;5027061;28;20056;-71
2023/10/22 09:23:10;;;;;;;7.65;2.72;;;;;;;;;;5034125;28;20059;-73
2023/10/22 09:25:35;;;;;;;2.03;1.17;;;;;;;;;;5031236;28;20028;-72
2023/10/22 09:28:14;;;;;;;2.17;1.40;;;;;;;;;;5029726;28;20021;-71
2023/10/22 09:30:40;;;;;;;7.28;2.40;;;;;;;;;;5039865;28;20105;-72
2023/10/22 09:33:05;;;;;;;5.68;1.52;;;;;;;;;;5028512;28;20092;-71
2023/10/22 09:35:31;;;;;;;4.32;2.03;;;;;;;;;;5038292;28;20243;-76
2023/10/22 09:37:58;;;;;;;2.53;1.20;;;;;;;;;;5045117;28;20032;-75
2023/10/22 09:40:24;;;;;;;4.05;1.88;;;;;;;;;;5040313;28;20518;-72
2023/10/22 09:42:50;;;;;;;6.88;1.85;;;;;;;;;;5027080;28;20493;-72
2023/10/22 09:45:16;;;;;;;2.85;1.52;;;;;;;;;;5027268;28;20017;-71
2023/10/22 09:47:43;;;;;;;6.85;1.33;;;;;;;;;;5036372;28;20025;-74
2023/10/22 09:50:08;;;;;;;6.13;2.40;;;;;;;;;;5030775;28;20021;-71
2023/10/22 09:52:35;;;;;;;4.00;1.52;;;;;;;;;;5034090;28;20516;-71
2023/10/22 09:55:04;;;;;;;2.47;1.60;;;;;;;;;;5026089;28;20013;-72
2023/10/22 09:57:30;;;;;;;2.88;1.77;;;;;;;;;;5024618;28;20022;-72
2023/10/22 10:00:01;;;;;;;1.88;1.27;;;;;;;;;;5037244;28;20013;-72
2023/10/22 10:02:26;;;;;;;2.35;0.90;;;;;;;;;;5029660;28;20032;-72
2023/10/22 10:04:52;;;;;;;5.72;2.40;;;;;;;;;;5029298;28;20385;-72
2023/10/22 10:07:18;;;;;;;2.85;1.42;;;;;;;;;;5028047;28;20029;-72
2023/10/22 10:09:44;;;;;;;2.05;1.33;;;;;;;;;;5024688;28;20025;-73
2023/10/22 10:12:12;;;;;;;2.30;1.00;;;;;;;;;;5027205;28;20056;-72
2023/10/22 10:14:44;;;;;;;3.28;1.52;;;;;;;;;;5022729;28;20022;-71
2023/10/22 10:17:09;;;;;;;7.90;2.70;;;;;;;;;;5027050;28;20017;-72
2023/10/22 10:19:35;;;;;;;5.68;2.75;;;;;;;;;;5025278;28;20462;-72
2023/10/22 10:22:00;;;;;;;4.00;1.33;;;;;;;;;;5024795;28;20030;-73
2023/10/22 10:24:26;;;;;;;5.60;1.10;;;;;;;;;;5025239;28;20317;-71
2023/10/22 10:26:57;;;;;;;3.08;2.05;;;;;;;;;;5027980;28;20076;-72
2023/10/22 10:29:24;;;;;;;3.55;2.40;;;;;;;;;;5023402;28;20064;-73
2023/10/22 10:31:52;;;;;;;2.13;1.67;;;;;;;;;;5029024;28;20021;-73
2023/10/22 10:34:24;;;;;;;5.38;2.30;;;;;;;;;;5026731;28;20375;-72
2023/10/22 10:36:49;;;;;;;8.27;3.60;;;;;;;;;;5024256;28;20030;-72
2023/10/22 10:39:33;;;;;;;4.15;1.85;;;;;;;;;;5028456;28;20440;-72
2023/10/22 10:41:58;;;;;;;3.60;1.38;;;;;;;;;;5025832;28;20030;-73
2023/10/22 10:44:23;;;;;;;3.90;1.40;;;;;;;;;;5028852;28;20079;-72
2023/10/22 10:46:49;;;;;;;1.57;1.13;;;;;;;;;;5027216;28;20386;-72
2023/10/22 10:49:14;;;;;;;3.13;1.80;;;;;;;;;;5027039;28;20297;-72
2023/10/22 10:51:57;;;;;;;2.90;1.33;;;;;;;;;;5029463;28;20272;-73
2023/10/22 10:54:22;;;;;;;6.07;1.75;;;;;;;;;;5024121;28;20268;-72
2023/10/22 10:56:58;;;;;;;4.68;2.08;;;;;;;;;;5041330;28;20014;-72
2023/10/22 10:59:28;;;;;;;6.32;2.20;;;;;;;;;;5028590;28;20033;-71
2023/10/22 11:02:19;;;;;;;3.47;1.67;;;;;;;;;;5026252;28;20021;-74
2023/10/22 11:04:45;;;;;;;3.50;2.40;;;;;;;;;;5027726;28;20509;-74
2023/10/22 11:07:10;;;;;;;7.03;2.70;;;;;;;;;;5036199;28;20070;-74
2023/10/22 11:09:37;;;;;;;3.42;1.77;;;;;;;;;;5048798;28;20033;-72
2023/10/22 11:12:03;;;;;;;4.03;2.40;;;;;;;;;;5047969;28;20494;-73
2023/10/22 11:14:33;;;;;;;7.88;2.38;;;;;;;;;;5036327;28;20064;-72
2023/10/22 11:16:58;;;;;;;3.67;1.27;;;;;;;;;;5040239;28;20423;-71
2023/10/22 11:19:24;;;;;;;5.80;1.98;;;;;;;;;;5061700;28;20028;-72
2023/10/22 11:21:51;;;;;;;7.13;2.90;;;;;;;;;;5046394;28;20065;-74
2023/10/22 11:24:17;;;;;;;5.32;1.80;;;;;;;;;;5037938;28;20029;-72
2023/10/22 11:26:42;;;;;;;4.90;1.17;;;;;;;;;;5040473;28;20032;-72
2023/10/22 11:29:08;;;;;;;4.80;1.83;;;;;;;;;;5044148;28;20103;-74
2023/10/22 11:31:33;;;;;;;10.10;2.45;;;;;;;;;;5039269;28;20025;-72
2023/10/22 11:34:14;;;;;;;10.38;3.50;;;;;;;;;;5045980;28;20024;-71
2023/10/22 11:36:40;;;;;;;11.98;5.43;;;;;;;;;;5045337;28;20029;-73
2023/10/22 11:39:18;;;;;;;8.15;4.75;;;;;;;;;;5044193;28;20043;-72
2023/10/22 11:41:43;;;;;;;8.73;3.58;;;;;;;;;;5045926;28;20017;-71
2023/10/22 11:44:09;;;;;;;6.30;3.15;;;;;;;;;;5047388;28;20021;-72
2023/10/22 11:46:41;;;;;;;6.78;3.15;;;;;;;;;;5039858;28;20493;-72
2023/10/22 11:49:06;;;;;;;6.95;3.38;;;;;;;;;;5032332;28;20029;-73
2023/10/22 11:51:43;;;;;;;9.55;4.13;;;;;;;;;;5039122;28;20036;-72
2023/10/22 11:54:08;;;;;;;8.25;3.97;;;;;;;;;;5044080;28;20032;-72
2023/10/22 11:56:34;;;;;;;8.32;4.25;;;;;;;;;;5045880;28;20496;-72
2023/10/22 11:58:59;;;;;;;7.87;3.37;;;;;;;;;;5042882;28;20663;-72
2023/10/22 12:01:25;;;;;;;9.70;4.47;;;;;;;;;;5044480;28;20264;-73
2023/10/22 12:03:50;;;;;;;9.98;4.93;;;;;;;;;;5030066;28;20299;-73
2023/10/22 12:06:15;;;;;;;11.43;4.80;;;;;;;;;;5032031;28;20049;-72
2023/10/22 12:08:40;;;;;;;10.48;4.85;;;;;;;;;;5038120;28;20274;-74
2023/10/22 12:11:06;;;;;;;9.97;4.07;;;;;;;;;;5029479;28;20071;-72
2023/10/22 12:13:31;;;;;;;8.07;3.78;;;;;;;;;;5031989;28;20272;-72
2023/10/22 12:15:56;;;;;;;5.90;2.60;;;;;;;;;;5030466;28;20159;-73
2023/10/22 12:18:23;;;;;;;44.90;12.40;;;;;;;;;;5027640;28;20602;-71
2023/10/22 12:20:48;;;;;;;11.02;4.43;;;;;;;;;;5027685;28;20264;-72
2023/10/22 12:23:13;;;;;;;5.67;2.83;;;;;;;;;;5027413;28;20030;-72
2023/10/22 12:25:39;;;;;;;9.95;2.53;;;;;;;;;;5036482;28;20260;-73
2023/10/22 12:28:04;;;;;;;9.15;3.55;;;;;;;;;;5038159;28;20040;-73
2023/10/22 12:30:29;;;;;;;12.87;3.87;;;;;;;;;;5026367;28;20690;-73
2023/10/22 12:32:54;;;;;;;3.55;1.67;;;;;;;;;;5038007;28;20353;-72
2023/10/22 12:35:19;;;;;;;5.15;2.45;;;;;;;;;;5042100;28;20028;-73
2023/10/22 12:37:45;;;;;;;5.00;2.22;;;;;;;;;;5042876;28;20087;-72
2023/10/22 12:40:10;;;;;;;3.22;1.77;;;;;;;;;;5033135;28;20568;-72
2023/10/22 12:42:41;;;;;;;7.60;2.78;;;;;;;;;;5037406;28;20067;-72
2023/10/22 12:45:06;;;;;;;4.18;2.00;;;;;;;;;;5036670;28;20032;-72
2023/10/22 12:47:31;;;;;;;3.38;1.63;;;;;;;;;;5038975;28;20033;-72
2023/10/22 12:49:56;;;;;;;3.70;1.33;;;;;;;;;;5032025;28;20099;-72
2023/10/22 12:52:22;;;;;;;5.53;1.93;;;;;;;;;;5036362;28;20308;-71
2023/10/22 12:54:49;;;;;;;3.00;1.60;;;;;;;;;;5029189;28;20264;-72
2023/10/22 12:57:14;;;;;;;3.03;1.27;;;;;;;;;;5034045;28;20307;-72
2023/10/22 12:59:39;;;;;;;5.68;1.90;;;;;;;;;;5029772;28;20469;-73
2023/10/22 13:02:05;;;;;;;3.38;1.55;;;;;;;;;;5027598;28;20458;-72
2023/10/22 13:04:30;;;;;;;2.30;1.35;;;;;;;;;;5027685;28;20013;-72
2023/10/22 13:06:56;;;;;;;4.07;1.50;;;;;;;;;;5017846;28;20084;-74
2023/10/22 13:09:21;;;;;;;2.30;1.80;;;;;;;;;;5019876;28;20320;-72
2023/10/22 13:11:46;;;;;;;6.32;2.22;;;;;;;;;;5014715;28;20064;-72
2023/10/22 13:14:11;;;;;;;3.37;1.43;;;;;;;;;;5028433;28;20079;-72
2023/10/22 13:16:37;;;;;;;7.67;2.63;;;;;;;;;;5025562;28;20414;-72
2023/10/22 13:19:02;;;;;;;7.27;1.67;;;;;;;;;;5027456;28;20271;-73
2023/10/22 13:21:27;;;;;;;1.70;1.20;;;;;;;;;;5029062;28;20339;-72
2023/10/22 13:23:52;;;;;;;3.10;0.90;;;;;;;;;;5029488;28;20045;-72
2023/10/22 13:26:18;;;;;;;2.35;1.55;;;;;;;;;;5026192;28;20640;-72
2023/10/22 13:28:43;;;;;;;3.50;1.40;;;;;;;;;;5043929;28;20531;-72
2023/10/22 13:31:09;;;;;;;4.75;2.40;;;;;;;;;;5027736;28;20029;-72
2023/10/22 13:33:35;;;;;;;3.55;1.80;;;;;;;;;;5026664;28;20070;-72
2023/10/22 13:36:03;;;;;;;5.65;2.83;;;;;;;;;;5029377;28;20017;-75
2023/10/22 13:38:28;;;;;;;4.22;3.05;;;;;;;;;;5028059;28;20017;-72
2023/10/22 13:40:53;;;;;;;5.53;3.87;;;;;;;;;;5028507;28;20033;-73
2023/10/22 13:43:19;;;;;;;8.55;4.28;;;;;;;;;;5027929;28;20667;-73
2023/10/22 13:45:44;;;;;;;7.73;4.43;;;;;;;;;;5028777;28;20104;-73
2023/10/22 13:48:09;;;;;;;3.13;2.05;;;;;;;;;;5021848;28;20644;-72
2023/10/22 13:50:36;;;;;;;2.25;1.45;;;;;;;;;;5026197;28;20500;-73
2023/10/22 13:53:01;;;;;;;3.45;2.47;;;;;;;;;;5026491;28;20092;-72
2023/10/22 13:55:26;;;;;;;4.93;1.90;;;;;;;;;;5025518;28;20037;-73
2023/10/22 13:57:53;;;;;;;3.13;2.03;;;;;;;;;;5029549;28;20456;-72
2023/10/22 14:00:19;;;;;;;3.15;2.33;;;;;;;;;;5040310;28;20093;-72
2023/10/22 14:02:44;;;;;;;3.97;2.35;;;;;;;;;;5035473;28;20686;-73
2023/10/22 14:05:09;;;;;;;6.75;2.60;;;;;;;;;;5035935;28;20516;-73
2023/10/22 14:07:35;;;;;;;2.88;1.92;;;;;;;;;;5024311;28;20112;-74
2023/10/22 14:10:00;;;;;;;3.35;2.03;;;;;;;;;;5027776;28;20024;-73
2023/10/22 14:12:26;;;;;;;5.75;2.22;;;;;;;;;;5029150;28;20025;-73
2023/10/22 14:14:51;;;;;;;5.03;2.70;;;;;;;;;;5027679;28;20418;-73
2023/10/22 14:17:16;;;;;;;6.13;2.30;;;;;;;;;;5028055;28;20272;-73
2023/10/22 14:19:41;;;;;;;6.47;3.70;;;;;;;;;;5029047;28;20351;-72
2023/10/22 14:22:06;;;;;;;3.47;2.50;;;;;;;;;;5027756;28;20272;-72
2023/10/22 14:24:33;;;;;;;7.90;2.35;;;;;;;;;;5020759;28;20271;-73
2023/10/22 14:26:58;;;;;;;2.72;2.25;;;;;;;;;;5024277;28;20552;-73
2023/10/22 14:29:23;;;;;;;3.43;2.20;;;;;;;;;;5027322;28;20079;-72
2023/10/22 14:31:49;;;;;;;4.18;2.40;;;;;;;;;;5027785;28;20264;-72
2023/10/22 14:34:17;;;;;;;5.28;2.40;;;;;;;;;;5026613;28;20380;-72
2023/10/22 14:36:42;;;;;;;3.65;2.30;;;;;;;;;;5027600;28;20024;-72